sensor_id;sensor_type;location;lat;lon;timestamp;temperature;humidity
15357;DHT22;7778;48.792;9.260;2023-04-10T00:00:41;7.60;99.90
15357;DHT22;7778;48.792;9.260;2023-04-10T00:03:28;7.50;99.90
15357;DHT22;7778;48.792;9.260;2023-04-10T00:06:14;7.40;99.90
15357;DHT22;7778;48.792;9.260;2023-04-10T00:08:59;7.30;99.90
15357;DHT22;7778;48.792;9.260;2023-04-10T00:11:45;7.20;99.90
15357;DHT22;7778;48.792;9.260;2023-04-10T00:14:30;7.00;99.90
15357;DHT22;7778;48.792;9.260;2023-04-10T00:17:17;6.90;99.90
15357;DHT22;7778;48.792;9.260;2023-04-10T00:20:04;6.80;99.90
15357;DHT22;7778;48.792;9.260;2023-04-10T00:22:51;6.80;99.90
15357;DHT22;7778;48.792;9.260;2023-04-10T00:25:36;6.70;99.90
15357;DHT22;7778;48.792;9.260;2023-04-10T00:28:22;6.70;99.90
15357;DHT22;7778;48.792;9.260;2023-04-10T00:31:07;6.60;99.90
15357;DHT22;7778;48.792;9.260;2023-04-10T00:33:54;6.50;99.90
15357;DHT22;7778;48.792;9.260;2023-04-10T00:36:39;6.50;99.90
15357;DHT22;7778;48.792;9.260;2023-04-10T00:39:25;6.60;99.90
15357;DHT22;7778;48.792;9.260;2023-04-10T00:42:11;6.50;99.90
15357;DHT22;7778;48.792;9.260;2023-04-10T00:44:56;6.50;99.90
15357;DHT22;7778;48.792;9.260;2023-04-10T00:47:42;6.40;99.90
15357;DHT22;7778;48.792;9.260;2023-04-10T00:50:29;6.40;99.90
15357;DHT22;7778;48.792;9.260;2023-04-10T00:53:14;6.40;99.90
15357;DHT22;7778;48.792;9.260;2023-04-10T00:56:01;6.30;99.90
15357;DHT22;7778;48.792;9.260;2023-04-10T00:58:46;6.20;99.90
15357;DHT22;7778;48.792;9.260;2023-04-10T01:01:32;6.20;99.90
15357;DHT22;7778;48.792;9.260;2023-04-10T01:04:18;6.10;99.90
15357;DHT22;7778;48.792;9.260;2023-04-10T01:07:10;6.20;99.90
15357;DHT22;7778;48.792;9.260;2023-04-10T01:10:07;6.30;99.90
15357;DHT22;7778;48.792;9.260;2023-04-10T01:13:05;6.10;99.90
15357;DHT22;7778;48.792;9.260;2023-04-10T01:16:18;6.10;99.90
15357;DHT22;7778;48.792;9.260;2023-04-10T01:19:14;6.00;99.90
15357;DHT22;7778;48.792;9.260;2023-04-10T01:22:13;6.00;99.90
15357;DHT22;7778;48.792;9.260;2023-04-10T01:25:09;6.00;99.90
15357;DHT22;7778;48.792;9.260;2023-04-10T01:28:20;5.90;99.90
15357;DHT22;7778;48.792;9.260;2023-04-10T01:31:38;5.90;99.90
15357;DHT22;7778;48.792;9.260;2023-04-10T01:34:31;5.80;99.90
15357;DHT22;7778;48.792;9.260;2023-04-10T01:37:23;5.70;99.90
15357;DHT22;7778;48.792;9.260;2023-04-10T01:40:14;5.80;99.90
15357;DHT22;7778;48.792;9.260;2023-04-10T01:43:03;5.80;99.90
15357;DHT22;7778;48.792;9.260;2023-04-10T01:45:50;5.70;99.90
15357;DHT22;7778;48.792;9.260;2023-04-10T01:48:38;5.70;99.90
15357;DHT22;7778;48.792;9.260;2023-04-10T01:51:24;5.60;99.90
15357;DHT22;7778;48.792;9.260;2023-04-10T01:54:11;5.70;99.90
15357;DHT22;7778;48.792;9.260;2023-04-10T01:56:58;5.70;99.90
15357;DHT22;7778;48.792;9.260;2023-04-10T01:59:45;5.60;99.90
15357;DHT22;7778;48.792;9.260;2023-04-10T02:02:30;5.60;99.90
15357;DHT22;7778;48.792;9.260;2023-04-10T02:05:18;5.50;99.90
15357;DHT22;7778;48.792;9.260;2023-04-10T02:08:10;5.50;99.90
15357;DHT22;7778;48.792;9.260;2023-04-10T02:11:03;5.40;99.90
15357;DHT22;7778;48.792;9.260;2023-04-10T02:13:55;5.40;99.90
15357;DHT22;7778;48.792;9.260;2023-04-10T02:16:45;5.30;99.90
15357;DHT22;7778;48.792;9.260;2023-04-10T02:19:32;5.30;99.90
15357;DHT22;7778;48.792;9.260;2023-04-10T02:22:20;5.20;99.90
15357;DHT22;7778;48.792;9.260;2023-04-10T02:25:07;5.20;99.90
15357;DHT22;7778;48.792;9.260;2023-04-10T02:27:53;5.20;99.90
15357;DHT22;7778;48.792;9.260;2023-04-10T02:30:38;5.20;99.90
15357;DHT22;7778;48.792;9.260;2023-04-10T02:33:24;5.20;99.90
15357;DHT22;7778;48.792;9.260;2023-04-10T02:36:09;5.20;99.90
15357;DHT22;7778;48.792;9.260;2023-04-10T02:38:57;5.20;99.90
15357;DHT22;7778;48.792;9.260;2023-04-10T02:41:43;5.10;99.90
15357;DHT22;7778;48.792;9.260;2023-04-10T02:44:29;5.10;99.90
15357;DHT22;7778;48.792;9.260;2023-04-10T02:47:16;5.10;99.90
15357;DHT22;7778;48.792;9.260;2023-04-10T02:50:02;5.10;99.90
15357;DHT22;7778;48.792;9.260;2023-04-10T02:52:48;5.00;99.90
15357;DHT22;7778;48.792;9.260;2023-04-10T02:55:35;5.00;99.90
15357;DHT22;7778;48.792;9.260;2023-04-10T02:58:20;4.90;99.90
15357;DHT22;7778;48.792;9.260;2023-04-10T03:01:06;5.00;99.90
15357;DHT22;7778;48.792;9.260;2023-04-10T03:03:51;5.10;99.90
15357;DHT22;7778;48.792;9.260;2023-04-10T03:06:37;4.90;99.90
15357;DHT22;7778;48.792;9.260;2023-04-10T03:09:23;4.80;99.90
15357;DHT22;7778;48.792;9.260;2023-04-10T03:12:10;4.80;99.90
15357;DHT22;7778;48.792;9.260;2023-04-10T03:14:55;4.90;99.90
15357;DHT22;7778;48.792;9.260;2023-04-10T03:17:40;4.90;99.90
15357;DHT22;7778;48.792;9.260;2023-04-10T03:20:26;4.90;99.90
15357;DHT22;7778;48.792;9.260;2023-04-10T03:23:11;4.80;99.90
15357;DHT22;7778;48.792;9.260;2023-04-10T03:25:57;4.80;99.90
15357;DHT22;7778;48.792;9.260;2023-04-10T03:28:43;4.70;99.90
15357;DHT22;7778;48.792;9.260;2023-04-10T03:31:29;4.60;99.90
15357;DHT22;7778;48.792;9.260;2023-04-10T03:34:14;4.70;99.90
15357;DHT22;7778;48.792;9.260;2023-04-10T03:37:00;4.70;99.90
15357;DHT22;7778;48.792;9.260;2023-04-10T03:39:46;4.60;99.90
15357;DHT22;7778;48.792;9.260;2023-04-10T03:42:31;4.70;99.90
15357;DHT22;7778;48.792;9.260;2023-04-10T03:45:18;4.70;99.90
15357;DHT22;7778;48.792;9.260;2023-04-10T03:48:04;4.70;99.90
15357;DHT22;7778;48.792;9.260;2023-04-10T03:50:50;4.60;99.90
15357;DHT22;7778;48.792;9.260;2023-04-10T03:53:36;4.50;99.90
15357;DHT22;7778;48.792;9.260;2023-04-10T03:56:21;4.50;99.90
15357;DHT22;7778;48.792;9.260;2023-04-10T03:59:07;4.50;99.90
15357;DHT22;7778;48.792;9.260;2023-04-10T04:01:53;4.60;99.90
15357;DHT22;7778;48.792;9.260;2023-04-10T04:04:39;4.60;99.90
15357;DHT22;7778;48.792;9.260;2023-04-10T04:07:25;4.60;99.90
15357;DHT22;7778;48.792;9.260;2023-04-10T04:10:10;4.60;99.90
15357;DHT22;7778;48.792;9.260;2023-04-10T04:12:56;4.50;99.90
15357;DHT22;7778;48.792;9.260;2023-04-10T04:15:41;4.40;99.90
15357;DHT22;7778;48.792;9.260;2023-04-10T04:18:28;4.30;99.90
15357;DHT22;7778;48.792;9.260;2023-04-10T04:21:13;4.20;99.90
15357;DHT22;7778;48.792;9.260;2023-04-10T04:23:59;4.20;99.90
15357;DHT22;7778;48.792;9.260;2023-04-10T04:26:44;4.20;99.90
15357;DHT22;7778;48.792;9.260;2023-04-10T04:29:30;4.30;99.90
15357;DHT22;7778;48.792;9.260;2023-04-10T04:32:15;4.40;99.90
15357;DHT22;7778;48.792;9.260;2023-04-10T04:35:02;4.30;99.90
15357;DHT22;7778;48.792;9.260;2023-04-10T04:37:49;4.30;99.90
15357;DHT22;7778;48.792;9.260;2023-04-10T04:40:34;4.40;99.90
15357;DHT22;7778;48.792;9.260;2023-04-10T04:43:19;4.30;99.90
15357;DHT22;7778;48.792;9.260;2023-04-10T04:46:05;4.40;99.90
15357;DHT22;7778;48.792;9.260;2023-04-10T04:48:51;4.40;99.90
15357;DHT22;7778;48.792;9.260;2023-04-10T04:51:38;4.50;99.90
15357;DHT22;7778;48.792;9.260;2023-04-10T04:54:23;4.40;99.90
15357;DHT22;7778;48.792;9.260;2023-04-10T04:57:09;4.50;99.90
15357;DHT22;7778;48.792;9.260;2023-04-10T04:59:55;4.40;99.90
15357;DHT22;7778;48.792;9.260;2023-04-10T05:02:40;4.50;99.90
15357;DHT22;7778;48.792;9.260;2023-04-10T05:05:26;4.60;99.90
15357;DHT22;7778;48.792;9.260;2023-04-10T05:08:12;4.60;99.90
15357;DHT22;7778;48.792;9.260;2023-04-10T05:10:58;4.70;99.90
15357;DHT22;7778;48.792;9.260;2023-04-10T05:13:45;4.80;99.90
15357;DHT22;7778;48.792;9.260;2023-04-10T05:16:30;4.90;99.90
15357;DHT22;7778;48.792;9.260;2023-04-10T05:19:15;5.00;99.90
15357;DHT22;7778;48.792;9.260;2023-04-10T05:22:01;5.10;99.90
15357;DHT22;7778;48.792;9.260;2023-04-10T05:24:48;5.30;99.90
15357;DHT22;7778;48.792;9.260;2023-04-10T05:27:33;5.30;99.90
15357;DHT22;7778;48.792;9.260;2023-04-10T05:30:19;5.40;99.90
15357;DHT22;7778;48.792;9.260;2023-04-10T05:33:05;5.50;99.90
15357;DHT22;7778;48.792;9.260;2023-04-10T05:35:51;5.60;99.90
15357;DHT22;7778;48.792;9.260;2023-04-10T05:38:37;5.70;99.90
15357;DHT22;7778;48.792;9.260;2023-04-10T05:41:24;5.80;99.90
15357;DHT22;7778;48.792;9.260;2023-04-10T05:44:09;5.90;99.90
15357;DHT22;7778;48.792;9.260;2023-04-10T05:46:55;6.00;99.90
15357;DHT22;7778;48.792;9.260;2023-04-10T05:49:40;6.10;99.90
15357;DHT22;7778;48.792;9.260;2023-04-10T05:52:29;6.20;99.90
15357;DHT22;7778;48.792;9.260;2023-04-10T05:55:15;6.40;99.90
15357;DHT22;7778;48.792;9.260;2023-04-10T05:58:02;6.50;99.90
15357;DHT22;7778;48.792;9.260;2023-04-10T06:00:48;6.60;99.90
15357;DHT22;7778;48.792;9.260;2023-04-10T06:03:33;6.80;99.90
15357;DHT22;7778;48.792;9.260;2023-04-10T06:06:19;6.90;99.90
15357;DHT22;7778;48.792;9.260;2023-04-10T06:09:05;7.10;99.90
15357;DHT22;7778;48.792;9.260;2023-04-10T06:11:50;7.40;99.90
15357;DHT22;7778;48.792;9.260;2023-04-10T06:14:38;7.70;99.90
15357;DHT22;7778;48.792;9.260;2023-04-10T06:17:23;7.90;99.90
15357;DHT22;7778;48.792;9.260;2023-04-10T06:20:11;8.10;99.90
15357;DHT22;7778;48.792;9.260;2023-04-10T06:22:57;8.30;99.90
15357;DHT22;7778;48.792;9.260;2023-04-10T06:25:50;8.80;99.90
15357;DHT22;7778;48.792;9.260;2023-04-10T06:28:36;9.40;99.90
15357;DHT22;7778;48.792;9.260;2023-04-10T06:31:23;10.10;99.90
15357;DHT22;7778;48.792;9.260;2023-04-10T06:34:09;10.90;99.90
15357;DHT22;7778;48.792;9.260;2023-04-10T06:36:54;11.20;99.90
15357;DHT22;7778;48.792;9.260;2023-04-10T06:39:40;11.60;99.90
15357;DHT22;7778;48.792;9.260;2023-04-10T06:42:25;12.20;99.90
15357;DHT22;7778;48.792;9.260;2023-04-10T06:45:11;12.30;99.90
15357;DHT22;7778;48.792;9.260;2023-04-10T06:47:58;13.00;99.90
15357;DHT22;7778;48.792;9.260;2023-04-10T06:50:43;13.50;99.90
15357;DHT22;7778;48.792;9.260;2023-04-10T06:53:35;13.60;99.90
15357;DHT22;7778;48.792;9.260;2023-04-10T06:56:20;13.50;99.90
15357;DHT22;7778;48.792;9.260;2023-04-10T06:59:06;12.80;99.90
15357;DHT22;7778;48.792;9.260;2023-04-10T07:01:52;13.10;99.90
15357;DHT22;7778;48.792;9.260;2023-04-10T07:04:38;13.00;99.90
15357;DHT22;7778;48.792;9.260;2023-04-10T07:07:24;13.00;99.90
15357;DHT22;7778;48.792;9.260;2023-04-10T07:10:10;12.80;99.90
15357;DHT22;7778;48.792;9.260;2023-04-10T07:12:56;12.80;99.90
15357;DHT22;7778;48.792;9.260;2023-04-10T07:15:42;13.20;99.90
15357;DHT22;7778;48.792;9.260;2023-04-10T07:18:27;14.70;99.90
15357;DHT22;7778;48.792;9.260;2023-04-10T07:21:14;16.00;99.90
15357;DHT22;7778;48.792;9.260;2023-04-10T07:23:59;16.90;99.90
15357;DHT22;7778;48.792;9.260;2023-04-10T07:26:45;17.30;99.90
15357;DHT22;7778;48.792;9.260;2023-04-10T07:29:31;18.50;99.90
15357;DHT22;7778;48.792;9.260;2023-04-10T07:32:17;19.10;99.90
15357;DHT22;7778;48.792;9.260;2023-04-10T07:35:02;19.20;95.20
15357;DHT22;7778;48.792;9.260;2023-04-10T07:37:49;19.50;93.70
15357;DHT22;7778;48.792;9.260;2023-04-10T07:40:36;20.10;92.80
15357;DHT22;7778;48.792;9.260;2023-04-10T07:43:21;20.30;92.20
15357;DHT22;7778;48.792;9.260;2023-04-10T07:46:07;19.20;93.20
15357;DHT22;7778;48.792;9.260;2023-04-10T07:48:52;18.70;94.10
15357;DHT22;7778;48.792;9.260;2023-04-10T07:51:39;18.70;94.20
15357;DHT22;7778;48.792;9.260;2023-04-10T07:54:26;19.00;94.70
15357;DHT22;7778;48.792;9.260;2023-04-10T07:57:11;19.90;93.50
15357;DHT22;7778;48.792;9.260;2023-04-10T07:59:56;20.50;92.10
15357;DHT22;7778;48.792;9.260;2023-04-10T08:02:42;21.50;90.80
15357;DHT22;7778;48.792;9.260;2023-04-10T08:05:27;21.90;89.20
15357;DHT22;7778;48.792;9.260;2023-04-10T08:08:15;22.20;85.20
15357;DHT22;7778;48.792;9.260;2023-04-10T08:11:02;22.00;82.80
15357;DHT22;7778;48.792;9.260;2023-04-10T08:13:49;21.60;81.20
15357;DHT22;7778;48.792;9.260;2023-04-10T08:16:35;20.80;79.40
15357;DHT22;7778;48.792;9.260;2023-04-10T08:19:21;20.80;78.70
15357;DHT22;7778;48.792;9.260;2023-04-10T08:22:06;20.90;75.00
15357;DHT22;7778;48.792;9.260;2023-04-10T08:24:52;21.00;71.90
15357;DHT22;7778;48.792;9.260;2023-04-10T08:27:39;20.60;66.60
15357;DHT22;7778;48.792;9.260;2023-04-10T08:30:24;18.90;68.50
15357;DHT22;7778;48.792;9.260;2023-04-10T08:33:10;18.60;69.40
15357;DHT22;7778;48.792;9.260;2023-04-10T08:35:55;19.00;70.30
15357;DHT22;7778;48.792;9.260;2023-04-10T08:38:41;19.50;69.10
15357;DHT22;7778;48.792;9.260;2023-04-10T08:41:27;19.40;69.10
15357;DHT22;7778;48.792;9.260;2023-04-10T08:44:14;18.60;71.00
15357;DHT22;7778;48.792;9.260;2023-04-10T08:46:59;18.50;68.50
15357;DHT22;7778;48.792;9.260;2023-04-10T08:49:48;18.50;69.90
15357;DHT22;7778;48.792;9.260;2023-04-10T08:52:42;18.80;68.90
15357;DHT22;7778;48.792;9.260;2023-04-10T08:55:28;19.60;70.20
15357;DHT22;7778;48.792;9.260;2023-04-10T08:58:14;19.70;65.90
15357;DHT22;7778;48.792;9.260;2023-04-10T09:01:04;19.00;66.00
15357;DHT22;7778;48.792;9.260;2023-04-10T09:03:49;19.70;67.80
15357;DHT22;7778;48.792;9.260;2023-04-10T09:06:35;20.40;66.00
15357;DHT22;7778;48.792;9.260;2023-04-10T09:09:20;20.70;62.80
15357;DHT22;7778;48.792;9.260;2023-04-10T09:12:06;20.70;61.80
15357;DHT22;7778;48.792;9.260;2023-04-10T09:14:52;20.80;62.10
15357;DHT22;7778;48.792;9.260;2023-04-10T09:17:54;21.50;62.20
15357;DHT22;7778;48.792;9.260;2023-04-10T09:20:40;22.30;60.60
15357;DHT22;7778;48.792;9.260;2023-04-10T09:23:34;22.20;56.60
15357;DHT22;7778;48.792;9.260;2023-04-10T09:26:24;21.40;58.30
15357;DHT22;7778;48.792;9.260;2023-04-10T09:29:11;21.90;57.00
15357;DHT22;7778;48.792;9.260;2023-04-10T09:31:57;21.70;56.80
15357;DHT22;7778;48.792;9.260;2023-04-10T09:34:54;22.60;58.90
15357;DHT22;7778;48.792;9.260;2023-04-10T09:37:43;22.80;57.60
15357;DHT22;7778;48.792;9.260;2023-04-10T09:40:29;22.00;54.40
15357;DHT22;7778;48.792;9.260;2023-04-10T09:43:22;21.70;55.30
15357;DHT22;7778;48.792;9.260;2023-04-10T09:46:10;21.80;58.10
15357;DHT22;7778;48.792;9.260;2023-04-10T09:48:56;23.20;54.30
15357;DHT22;7778;48.792;9.260;2023-04-10T09:51:44;23.80;54.60
15357;DHT22;7778;48.792;9.260;2023-04-10T09:54:35;23.80;52.50
15357;DHT22;7778;48.792;9.260;2023-04-10T09:57:22;23.00;51.30
15357;DHT22;7778;48.792;9.260;2023-04-10T10:00:10;21.70;52.90
15357;DHT22;7778;48.792;9.260;2023-04-10T10:02:58;21.90;53.40
15357;DHT22;7778;48.792;9.260;2023-04-10T10:05:47;21.30;52.60
15357;DHT22;7778;48.792;9.260;2023-04-10T10:08:35;22.00;52.80
15357;DHT22;7778;48.792;9.260;2023-04-10T10:11:23;22.20;51.00
15357;DHT22;7778;48.792;9.260;2023-04-10T10:14:14;22.30;52.20
15357;DHT22;7778;48.792;9.260;2023-04-10T10:17:01;22.00;51.80
15357;DHT22;7778;48.792;9.260;2023-04-10T10:19:55;21.50;51.50
15357;DHT22;7778;48.792;9.260;2023-04-10T10:22:44;22.40;50.90
15357;DHT22;7778;48.792;9.260;2023-04-10T10:25:33;23.00;50.80
15357;DHT22;7778;48.792;9.260;2023-04-10T10:28:20;22.80;51.90
15357;DHT22;7778;48.792;9.260;2023-04-10T10:31:06;23.30;50.20
15357;DHT22;7778;48.792;9.260;2023-04-10T10:33:52;22.80;50.80
15357;DHT22;7778;48.792;9.260;2023-04-10T10:36:39;23.40;48.80
15357;DHT22;7778;48.792;9.260;2023-04-10T10:39:30;23.10;49.40
15357;DHT22;7778;48.792;9.260;2023-04-10T10:42:24;23.10;49.80
15357;DHT22;7778;48.792;9.260;2023-04-10T10:45:16;22.60;47.40
15357;DHT22;7778;48.792;9.260;2023-04-10T10:48:03;21.80;49.50
15357;DHT22;7778;48.792;9.260;2023-04-10T10:50:51;21.20;48.90
15357;DHT22;7778;48.792;9.260;2023-04-10T10:53:42;20.90;51.20
15357;DHT22;7778;48.792;9.260;2023-04-10T10:56:37;21.20;49.80
15357;DHT22;7778;48.792;9.260;2023-04-10T10:59:55;20.90;49.50
15357;DHT22;7778;48.792;9.260;2023-04-10T11:02:41;20.70;49.20
15357;DHT22;7778;48.792;9.260;2023-04-10T11:05:48;20.60;50.20
15357;DHT22;7778;48.792;9.260;2023-04-10T11:08:39;20.20;51.20
15357;DHT22;7778;48.792;9.260;2023-04-10T11:11:29;20.50;51.30
15357;DHT22;7778;48.792;9.260;2023-04-10T11:14:15;20.10;50.20
15357;DHT22;7778;48.792;9.260;2023-04-10T11:17:03;20.10;50.20
15357;DHT22;7778;48.792;9.260;2023-04-10T11:19:59;20.20;51.10
15357;DHT22;7778;48.792;9.260;2023-04-10T11:23:06;20.40;49.50
15357;DHT22;7778;48.792;9.260;2023-04-10T11:25:54;20.40;51.10
15357;DHT22;7778;48.792;9.260;2023-04-10T11:28:40;20.60;49.30
15357;DHT22;7778;48.792;9.260;2023-04-10T11:31:25;20.50;47.90
15357;DHT22;7778;48.792;9.260;2023-04-10T11:34:13;20.10;47.60
15357;DHT22;7778;48.792;9.260;2023-04-10T11:36:59;19.90;48.40
15357;DHT22;7778;48.792;9.260;2023-04-10T11:39:46;20.20;48.40
15357;DHT22;7778;48.792;9.260;2023-04-10T11:42:32;19.50;50.00
15357;DHT22;7778;48.792;9.260;2023-04-10T11:45:25;19.50;49.40
15357;DHT22;7778;48.792;9.260;2023-04-10T11:48:11;19.70;50.20
15357;DHT22;7778;48.792;9.260;2023-04-10T11:51:05;19.70;49.10
15357;DHT22;7778;48.792;9.260;2023-04-10T11:54:03;20.10;47.70
15357;DHT22;7778;48.792;9.260;2023-04-10T11:56:58;20.00;46.50
15357;DHT22;7778;48.792;9.260;2023-04-10T11:59:49;19.70;43.90
15357;DHT22;7778;48.792;9.260;2023-04-10T12:02:49;19.40;43.40
15357;DHT22;7778;48.792;9.260;2023-04-10T12:05:44;19.90;43.50
15357;DHT22;7778;48.792;9.260;2023-04-10T12:08:32;20.20;42.50
15357;DHT22;7778;48.792;9.260;2023-04-10T12:11:19;20.20;41.10
15357;DHT22;7778;48.792;9.260;2023-04-10T12:14:06;19.80;41.10
15357;DHT22;7778;48.792;9.260;2023-04-10T12:16:52;19.80;42.80
15357;DHT22;7778;48.792;9.260;2023-04-10T12:19:38;20.00;42.60
15357;DHT22;7778;48.792;9.260;2023-04-10T12:22:24;19.80;41.40
15357;DHT22;7778;48.792;9.260;2023-04-10T12:25:12;19.60;41.10
15357;DHT22;7778;48.792;9.260;2023-04-10T12:27:57;19.60;42.10
15357;DHT22;7778;48.792;9.260;2023-04-10T12:30:46;19.50;42.10
15357;DHT22;7778;48.792;9.260;2023-04-10T12:33:32;19.70;41.00
15357;DHT22;7778;48.792;9.260;2023-04-10T12:36:21;19.70;40.70
15357;DHT22;7778;48.792;9.260;2023-04-10T12:39:21;19.90;42.50
15357;DHT22;7778;48.792;9.260;2023-04-10T12:42:12;19.90;42.00
15357;DHT22;7778;48.792;9.260;2023-04-10T12:45:00;19.80;42.00
15357;DHT22;7778;48.792;9.260;2023-04-10T12:47:47;19.20;41.10
15357;DHT22;7778;48.792;9.260;2023-04-10T12:50:45;19.10;43.10
15357;DHT22;7778;48.792;9.260;2023-04-10T12:53:30;19.20;43.00
15357;DHT22;7778;48.792;9.260;2023-04-10T12:56:27;19.40;42.60
15357;DHT22;7778;48.792;9.260;2023-04-10T12:59:25;19.60;41.80
15357;DHT22;7778;48.792;9.260;2023-04-10T13:02:12;19.50;43.40
15357;DHT22;7778;48.792;9.260;2023-04-10T13:04:58;19.40;42.20
15357;DHT22;7778;48.792;9.260;2023-04-10T13:07:45;19.30;43.00
15357;DHT22;7778;48.792;9.260;2023-04-10T13:10:35;19.10;41.00
15357;DHT22;7778;48.792;9.260;2023-04-10T13:13:21;19.10;43.80
15357;DHT22;7778;48.792;9.260;2023-04-10T13:16:08;19.40;43.00
15357;DHT22;7778;48.792;9.260;2023-04-10T13:18:56;19.50;42.80
15357;DHT22;7778;48.792;9.260;2023-04-10T13:21:41;19.30;44.20
15357;DHT22;7778;48.792;9.260;2023-04-10T13:24:27;19.30;44.30
15357;DHT22;7778;48.792;9.260;2023-04-10T13:27:13;19.40;45.50
15357;DHT22;7778;48.792;9.260;2023-04-10T13:29:59;19.60;45.40
15357;DHT22;7778;48.792;9.260;2023-04-10T13:32:46;19.90;45.20
15357;DHT22;7778;48.792;9.260;2023-04-10T13:35:31;20.00;43.70
15357;DHT22;7778;48.792;9.260;2023-04-10T13:38:17;19.80;43.20
15357;DHT22;7778;48.792;9.260;2023-04-10T13:41:03;19.60;42.40
15357;DHT22;7778;48.792;9.260;2023-04-10T13:43:48;19.70;44.20
15357;DHT22;7778;48.792;9.260;2023-04-10T13:46:34;20.10;45.40
15357;DHT22;7778;48.792;9.260;2023-04-10T13:49:21;20.40;43.70
15357;DHT22;7778;48.792;9.260;2023-04-10T13:52:07;19.50;43.00
15357;DHT22;7778;48.792;9.260;2023-04-10T13:54:52;19.60;43.90
15357;DHT22;7778;48.792;9.260;2023-04-10T13:57:37;18.90;43.30
15357;DHT22;7778;48.792;9.260;2023-04-10T14:00:23;19.10;44.90
15357;DHT22;7778;48.792;9.260;2023-04-10T14:03:09;19.20;45.30
15357;DHT22;7778;48.792;9.260;2023-04-10T14:05:56;19.40;44.30
15357;DHT22;7778;48.792;9.260;2023-04-10T14:08:42;19.30;44.00
15357;DHT22;7778;48.792;9.260;2023-04-10T14:11:27;19.40;44.20
15357;DHT22;7778;48.792;9.260;2023-04-10T14:14:13;19.70;44.90
15357;DHT22;7778;48.792;9.260;2023-04-10T14:16:59;19.70;43.70
15357;DHT22;7778;48.792;9.260;2023-04-10T14:19:44;19.40;43.10
15357;DHT22;7778;48.792;9.260;2023-04-10T14:22:33;19.10;43.00
15357;DHT22;7778;48.792;9.260;2023-04-10T14:25:18;19.10;43.50
15357;DHT22;7778;48.792;9.260;2023-04-10T14:28:04;19.40;44.50
15357;DHT22;7778;48.792;9.260;2023-04-10T14:30:50;19.40;44.50
15357;DHT22;7778;48.792;9.260;2023-04-10T14:33:36;19.40;44.10
15357;DHT22;7778;48.792;9.260;2023-04-10T14:36:21;19.50;44.90
15357;DHT22;7778;48.792;9.260;2023-04-10T14:39:09;19.30;44.10
15357;DHT22;7778;48.792;9.260;2023-04-10T14:41:54;19.40;43.80
15357;DHT22;7778;48.792;9.260;2023-04-10T14:44:40;19.50;44.90
15357;DHT22;7778;48.792;9.260;2023-04-10T14:47:25;19.30;44.50
15357;DHT22;7778;48.792;9.260;2023-04-10T14:50:11;19.10;45.20
15357;DHT22;7778;48.792;9.260;2023-04-10T14:52:58;19.20;45.60
15357;DHT22;7778;48.792;9.260;2023-04-10T14:55:45;19.40;45.50
15357;DHT22;7778;48.792;9.260;2023-04-10T14:58:30;19.30;45.70
15357;DHT22;7778;48.792;9.260;2023-04-10T15:01:16;19.10;45.50
15357;DHT22;7778;48.792;9.260;2023-04-10T15:04:02;19.00;45.30
15357;DHT22;7778;48.792;9.260;2023-04-10T15:06:47;19.00;45.80
15357;DHT22;7778;48.792;9.260;2023-04-10T15:09:34;18.70;45.70
15357;DHT22;7778;48.792;9.260;2023-04-10T15:12:20;18.60;46.20
15357;DHT22;7778;48.792;9.260;2023-04-10T15:15:09;18.80;45.50
15357;DHT22;7778;48.792;9.260;2023-04-10T15:17:55;18.70;45.90
15357;DHT22;7778;48.792;9.260;2023-04-10T15:20:40;18.70;46.50
15357;DHT22;7778;48.792;9.260;2023-04-10T15:23:26;18.80;46.80
15357;DHT22;7778;48.792;9.260;2023-04-10T15:26:12;18.60;47.10
15357;DHT22;7778;48.792;9.260;2023-04-10T15:28:59;18.80;46.30
15357;DHT22;7778;48.792;9.260;2023-04-10T15:31:44;18.70;46.30
15357;DHT22;7778;48.792;9.260;2023-04-10T15:34:30;18.60;46.50
15357;DHT22;7778;48.792;9.260;2023-04-10T15:37:15;18.70;46.80
15357;DHT22;7778;48.792;9.260;2023-04-10T15:40:02;18.90;47.60
15357;DHT22;7778;48.792;9.260;2023-04-10T15:42:49;18.70;47.60
15357;DHT22;7778;48.792;9.260;2023-04-10T15:45:36;18.60;47.70
15357;DHT22;7778;48.792;9.260;2023-04-10T15:48:21;18.60;47.20
15357;DHT22;7778;48.792;9.260;2023-04-10T15:51:07;18.50;48.40
15357;DHT22;7778;48.792;9.260;2023-04-10T15:53:52;18.40;49.00
15357;DHT22;7778;48.792;9.260;2023-04-10T15:56:38;18.40;47.90
15357;DHT22;7778;48.792;9.260;2023-04-10T15:59:24;18.20;49.30
15357;DHT22;7778;48.792;9.260;2023-04-10T16:02:11;18.20;48.90
15357;DHT22;7778;48.792;9.260;2023-04-10T16:04:56;18.40;49.70
15357;DHT22;7778;48.792;9.260;2023-04-10T16:07:42;18.10;49.50
15357;DHT22;7778;48.792;9.260;2023-04-10T16:10:27;17.80;49.70
15357;DHT22;7778;48.792;9.260;2023-04-10T16:13:13;17.80;50.30
15357;DHT22;7778;48.792;9.260;2023-04-10T16:15:58;17.70;50.50
15357;DHT22;7778;48.792;9.260;2023-04-10T16:18:45;17.60;51.30
15357;DHT22;7778;48.792;9.260;2023-04-10T16:21:31;17.50;51.20
15357;DHT22;7778;48.792;9.260;2023-04-10T16:24:17;17.50;51.30
15357;DHT22;7778;48.792;9.260;2023-04-10T16:27:02;17.40;51.60
15357;DHT22;7778;48.792;9.260;2023-04-10T16:29:48;17.40;52.20
15357;DHT22;7778;48.792;9.260;2023-04-10T16:32:33;17.40;51.90
15357;DHT22;7778;48.792;9.260;2023-04-10T16:35:20;17.40;52.70
15357;DHT22;7778;48.792;9.260;2023-04-10T16:38:06;17.60;52.60
15357;DHT22;7778;48.792;9.260;2023-04-10T16:40:51;17.70;53.10
15357;DHT22;7778;48.792;9.260;2023-04-10T16:43:37;17.60;53.50
15357;DHT22;7778;48.792;9.260;2023-04-10T16:46:22;17.70;53.50
15357;DHT22;7778;48.792;9.260;2023-04-10T16:49:08;17.70;53.10
15357;DHT22;7778;48.792;9.260;2023-04-10T16:51:54;17.60;52.30
15357;DHT22;7778;48.792;9.260;2023-04-10T16:54:40;17.40;52.80
15357;DHT22;7778;48.792;9.260;2023-04-10T16:57:26;17.40;53.10
15357;DHT22;7778;48.792;9.260;2023-04-10T17:00:12;17.40;53.10
15357;DHT22;7778;48.792;9.260;2023-04-10T17:02:59;17.40;53.40
15357;DHT22;7778;48.792;9.260;2023-04-10T17:05:45;17.20;53.80
15357;DHT22;7778;48.792;9.260;2023-04-10T17:08:32;17.10;54.20
15357;DHT22;7778;48.792;9.260;2023-04-10T17:11:18;17.10;54.50
15357;DHT22;7778;48.792;9.260;2023-04-10T17:14:03;17.00;54.50
15357;DHT22;7778;48.792;9.260;2023-04-10T17:16:50;17.00;54.70
15357;DHT22;7778;48.792;9.260;2023-04-10T17:19:35;16.70;54.00
15357;DHT22;7778;48.792;9.260;2023-04-10T17:22:21;16.50;54.50
15357;DHT22;7778;48.792;9.260;2023-04-10T17:25:08;16.60;54.90
15357;DHT22;7778;48.792;9.260;2023-04-10T17:27:55;16.50;54.80
15357;DHT22;7778;48.792;9.260;2023-04-10T17:30:41;16.40;54.70
15357;DHT22;7778;48.792;9.260;2023-04-10T17:33:27;16.50;54.80
15357;DHT22;7778;48.792;9.260;2023-04-10T17:36:14;16.40;55.70
15357;DHT22;7778;48.792;9.260;2023-04-10T17:38:59;16.40;55.20
15357;DHT22;7778;48.792;9.260;2023-04-10T17:41:46;16.50;55.50
15357;DHT22;7778;48.792;9.260;2023-04-10T17:44:32;16.40;57.30
15357;DHT22;7778;48.792;9.260;2023-04-10T17:47:18;16.40;55.90
15357;DHT22;7778;48.792;9.260;2023-04-10T17:50:04;16.40;55.90
15357;DHT22;7778;48.792;9.260;2023-04-10T17:52:51;16.20;56.10
15357;DHT22;7778;48.792;9.260;2023-04-10T17:55:38;16.20;56.60
15357;DHT22;7778;48.792;9.260;2023-04-10T17:58:25;16.10;56.80
15357;DHT22;7778;48.792;9.260;2023-04-10T18:01:10;16.10;56.60